Indian Springs, Mississippi
Current Conditions -  °F | °C
As of 10:53 AM on Thursday 30 Oct 2014 (Local Time) from KHBG Reporting Station
Clear Clear  
Wind Chill: 67°   Ceiling: Unl
Heat Index: 67°   Visibility: 10mi
Dew Point: 40°   Wind: 10mph
Humidity: 37%   Direction: 50°NE
Pressure: 30.16"   Gusts: NA
Location:  31.1996°N, 89.2694°W
Report Text: KHBG 301553Z AUTO 05009KT 10SM CLR 19/04 A3016 RMK AO2 SLP209 T01940044
Loading
Personal Weather Stations






























Interactive Weather Map
Tropical Storm Tracking
New forecast layout! Learn more

10-Day Weather Forecast

Advertisements
Track Severe Weather on mobile